sensor_id;sensor_type;location;lat;lon;timestamp;pressure;altitude;pressure_sealevel;temperature;humidity
27864;BME280;15980;51.092;13.916;2022-10-17T00:02:13;99357.28;;;14.41;100.00
27864;BME280;15980;51.092;13.916;2022-10-17T00:07:16;99348.16;;;14.53;100.00
27864;BME280;15980;51.092;13.916;2022-10-17T00:12:18;99357.16;;;14.50;100.00
27864;BME280;15980;51.092;13.916;2022-10-17T00:17:23;99355.44;;;14.45;100.00
27864;BME280;15980;51.092;13.916;2022-10-17T00:22:26;99363.75;;;14.33;100.00
27864;BME280;15980;51.092;13.916;2022-10-17T00:27:28;99358.69;;;14.23;100.00
27864;BME280;15980;51.092;13.916;2022-10-17T00:32:33;99346.31;;;14.05;100.00
27864;BME280;15980;51.092;13.916;2022-10-17T00:37:35;99353.69;;;13.89;100.00
27864;BME280;15980;51.092;13.916;2022-10-17T00:42:38;99352.75;;;13.97;100.00
27864;BME280;15980;51.092;13.916;2022-10-17T00:47:46;99349.31;;;14.00;100.00
27864;BME280;15980;51.092;13.916;2022-10-17T00:52:50;99353.91;;;13.96;100.00
27864;BME280;15980;51.092;13.916;2022-10-17T00:57:54;99355.53;;;13.97;100.00
27864;BME280;15980;51.092;13.916;2022-10-17T01:02:59;99368.16;;;13.98;100.00
27864;BME280;15980;51.092;13.916;2022-10-17T01:08:02;99361.03;;;13.97;100.00
27864;BME280;15980;51.092;13.916;2022-10-17T01:13:11;99364.38;;;13.90;100.00
27864;BME280;15980;51.092;13.916;2022-10-17T01:18:26;99369.31;;;13.72;100.00
27864;BME280;15980;51.092;13.916;2022-10-17T01:23:53;99370.81;;;13.58;100.00
27864;BME280;15980;51.092;13.916;2022-10-17T01:34:37;99357.31;;;13.19;100.00
27864;BME280;15980;51.092;13.916;2022-10-17T01:39:45;99361.16;;;13.06;100.00
27864;BME280;15980;51.092;13.916;2022-10-17T01:44:55;99355.53;;;13.03;100.00
27864;BME280;15980;51.092;13.916;2022-10-17T01:50:03;99367.81;;;13.05;100.00
27864;BME280;15980;51.092;13.916;2022-10-17T01:55:11;99361.16;;;13.06;100.00
27864;BME280;15980;51.092;13.916;2022-10-17T02:00:19;99359.09;;;13.15;100.00
27864;BME280;15980;51.092;13.916;2022-10-17T02:05:27;99355.34;;;13.20;100.00
27864;BME280;15980;51.092;13.916;2022-10-17T02:10:36;99349.16;;;13.35;100.00
27864;BME280;15980;51.092;13.916;2022-10-17T02:15:56;99341.97;;;13.67;100.00
27864;BME280;15980;51.092;13.916;2022-10-17T02:21:06;99330.81;;;13.88;100.00
27864;BME280;15980;51.092;13.916;2022-10-17T02:26:14;99336.56;;;13.95;100.00
27864;BME280;15980;51.092;13.916;2022-10-17T02:31:21;99338.63;;;13.98;100.00
27864;BME280;15980;51.092;13.916;2022-10-17T02:36:33;99326.53;;;14.03;100.00
27864;BME280;15980;51.092;13.916;2022-10-17T02:41:39;99331.00;;;14.07;100.00
27864;BME280;15980;51.092;13.916;2022-10-17T02:46:44;99333.88;;;14.11;100.00
27864;BME280;15980;51.092;13.916;2022-10-17T02:52:00;99338.81;;;14.18;100.00
27864;BME280;15980;51.092;13.916;2022-10-17T02:57:09;99344.53;;;14.25;100.00
27864;BME280;15980;51.092;13.916;2022-10-17T03:02:13;99347.75;;;14.27;100.00
27864;BME280;15980;51.092;13.916;2022-10-17T03:07:17;99343.03;;;14.27;100.00
27864;BME280;15980;51.092;13.916;2022-10-17T03:12:20;99333.38;;;14.33;100.00
27864;BME280;15980;51.092;13.916;2022-10-17T03:17:22;99348.78;;;14.34;100.00
27864;BME280;15980;51.092;13.916;2022-10-17T03:22:27;99349.69;;;14.38;100.00
27864;BME280;15980;51.092;13.916;2022-10-17T03:27:30;99345.56;;;14.32;100.00
27864;BME280;15980;51.092;13.916;2022-10-17T03:32:33;99350.63;;;14.30;100.00
27864;BME280;15980;51.092;13.916;2022-10-17T03:37:37;99340.06;;;14.32;100.00
27864;BME280;15980;51.092;13.916;2022-10-17T03:42:40;99352.25;;;14.31;100.00
27864;BME280;15980;51.092;13.916;2022-10-17T03:47:42;99356.97;;;14.31;100.00
27864;BME280;15980;51.092;13.916;2022-10-17T03:52:47;99365.25;;;14.31;100.00
27864;BME280;15980;51.092;13.916;2022-10-17T03:57:50;99359.38;;;14.32;100.00
27864;BME280;15980;51.092;13.916;2022-10-17T04:02:53;99358.44;;;14.28;100.00
27864;BME280;15980;51.092;13.916;2022-10-17T04:07:57;99372.94;;;14.25;100.00
27864;BME280;15980;51.092;13.916;2022-10-17T04:13:00;99372.03;;;14.21;100.00
27864;BME280;15980;51.092;13.916;2022-10-17T04:18:02;99379.59;;;14.24;100.00
27864;BME280;15980;51.092;13.916;2022-10-17T04:23:11;99384.22;;;14.20;100.00
27864;BME280;15980;51.092;13.916;2022-10-17T04:28:15;99385.72;;;14.18;100.00
27864;BME280;15980;51.092;13.916;2022-10-17T04:33:17;99379.19;;;14.10;100.00
27864;BME280;15980;51.092;13.916;2022-10-17T04:38:21;99383.44;;;14.07;100.00
27864;BME280;15980;51.092;13.916;2022-10-17T04:43:25;99385.84;;;14.09;100.00
27864;BME280;15980;51.092;13.916;2022-10-17T04:48:28;99386.19;;;14.07;100.00
27864;BME280;15980;51.092;13.916;2022-10-17T04:53:34;99394.81;;;14.06;100.00
27864;BME280;15980;51.092;13.916;2022-10-17T04:58:38;99399.19;;;14.07;100.00
27864;BME280;15980;51.092;13.916;2022-10-17T05:03:41;99404.03;;;13.98;100.00
27864;BME280;15980;51.092;13.916;2022-10-17T05:08:46;99407.94;;;13.97;100.00
27864;BME280;15980;51.092;13.916;2022-10-17T05:13:50;99404.59;;;14.03;100.00
27864;BME280;15980;51.092;13.916;2022-10-17T05:18:54;99419.53;;;14.02;100.00
27864;BME280;15980;51.092;13.916;2022-10-17T05:23:58;99415.75;;;13.95;100.00
27864;BME280;15980;51.092;13.916;2022-10-17T05:29:01;99422.66;;;13.89;100.00
27864;BME280;15980;51.092;13.916;2022-10-17T05:34:04;99417.72;;;13.94;100.00
27864;BME280;15980;51.092;13.916;2022-10-17T05:39:10;99431.50;;;13.94;100.00
27864;BME280;15980;51.092;13.916;2022-10-17T05:44:13;99426.00;;;13.94;100.00
27864;BME280;15980;51.092;13.916;2022-10-17T05:49:16;99433.81;;;13.92;100.00
27864;BME280;15980;51.092;13.916;2022-10-17T05:54:33;99432.88;;;14.00;100.00
27864;BME280;15980;51.092;13.916;2022-10-17T05:59:36;99444.94;;;14.08;100.00
27864;BME280;15980;51.092;13.916;2022-10-17T06:04:39;99441.28;;;14.04;100.00
27864;BME280;15980;51.092;13.916;2022-10-17T06:09:47;99439.41;;;14.20;100.00
27864;BME280;15980;51.092;13.916;2022-10-17T06:14:50;99443.44;;;14.23;100.00
27864;BME280;15980;51.092;13.916;2022-10-17T06:19:52;99445.16;;;14.27;100.00
27864;BME280;15980;51.092;13.916;2022-10-17T06:24:56;99456.81;;;14.33;100.00
27864;BME280;15980;51.092;13.916;2022-10-17T06:29:59;99458.50;;;14.37;100.00
27864;BME280;15980;51.092;13.916;2022-10-17T06:35:02;99469.91;;;14.48;100.00
27864;BME280;15980;51.092;13.916;2022-10-17T06:40:08;99476.69;;;14.51;100.00
27864;BME280;15980;51.092;13.916;2022-10-17T06:45:12;99478.97;;;14.61;100.00
27864;BME280;15980;51.092;13.916;2022-10-17T06:50:15;99481.84;;;14.64;100.00
27864;BME280;15980;51.092;13.916;2022-10-17T06:55:20;99478.72;;;14.78;100.00
27864;BME280;15980;51.092;13.916;2022-10-17T07:00:23;99491.59;;;14.86;100.00
27864;BME280;15980;51.092;13.916;2022-10-17T07:05:27;99501.03;;;14.85;100.00
27864;BME280;15980;51.092;13.916;2022-10-17T07:10:31;99497.53;;;15.00;100.00
27864;BME280;15980;51.092;13.916;2022-10-17T07:15:39;99502.22;;;15.12;100.00
27864;BME280;15980;51.092;13.916;2022-10-17T07:20:42;99501.88;;;15.14;100.00
27864;BME280;15980;51.092;13.916;2022-10-17T07:25:46;99505.88;;;15.28;100.00
27864;BME280;15980;51.092;13.916;2022-10-17T07:30:48;99514.47;;;15.39;98.96
27864;BME280;15980;51.092;13.916;2022-10-17T07:35:52;99508.50;;;15.53;99.23
27864;BME280;15980;51.092;13.916;2022-10-17T07:40:57;99506.09;;;15.63;97.45
27864;BME280;15980;51.092;13.916;2022-10-17T07:46:01;99500.66;;;15.83;97.51
27864;BME280;15980;51.092;13.916;2022-10-17T07:51:05;99507.19;;;15.90;96.55
27864;BME280;15980;51.092;13.916;2022-10-17T07:56:10;99514.78;;;15.93;95.99
27864;BME280;15980;51.092;13.916;2022-10-17T08:01:13;99523.09;;;16.25;93.63
27864;BME280;15980;51.092;13.916;2022-10-17T08:06:16;99530.06;;;16.50;92.76
27864;BME280;15980;51.092;13.916;2022-10-17T08:11:20;99531.66;;;16.67;90.93
27864;BME280;15980;51.092;13.916;2022-10-17T08:16:25;99533.59;;;16.82;90.67
27864;BME280;15980;51.092;13.916;2022-10-17T08:21:28;99518.31;;;17.08;89.11
27864;BME280;15980;51.092;13.916;2022-10-17T08:26:33;99535.97;;;17.19;88.40
27864;BME280;15980;51.092;13.916;2022-10-17T08:31:37;99542.44;;;17.42;87.59
27864;BME280;15980;51.092;13.916;2022-10-17T08:36:40;99540.44;;;17.62;85.22
27864;BME280;15980;51.092;13.916;2022-10-17T08:41:55;99540.66;;;17.73;83.59
27864;BME280;15980;51.092;13.916;2022-10-17T08:47:04;99526.03;;;17.95;83.39
27864;BME280;15980;51.092;13.916;2022-10-17T08:52:15;99532.19;;;17.85;82.48
27864;BME280;15980;51.092;13.916;2022-10-17T08:57:21;99543.91;;;17.98;82.25
27864;BME280;15980;51.092;13.916;2022-10-17T09:02:36;99548.91;;;17.88;81.97
27864;BME280;15980;51.092;13.916;2022-10-17T09:07:44;99558.53;;;17.95;81.45
27864;BME280;15980;51.092;13.916;2022-10-17T09:13:00;99547.84;;;18.19;80.00
27864;BME280;15980;51.092;13.916;2022-10-17T09:18:11;99545.59;;;18.25;79.74
27864;BME280;15980;51.092;13.916;2022-10-17T09:23:18;99549.72;;;18.35;79.53
27864;BME280;15980;51.092;13.916;2022-10-17T09:28:26;99550.69;;;18.46;79.59
27864;BME280;15980;51.092;13.916;2022-10-17T09:33:34;99540.88;;;18.52;78.95
27864;BME280;15980;51.092;13.916;2022-10-17T09:38:52;99544.19;;;18.35;79.78
27864;BME280;15980;51.092;13.916;2022-10-17T09:43:57;99551.97;;;18.26;78.37
27864;BME280;15980;51.092;13.916;2022-10-17T09:49:05;99540.28;;;18.16;78.68
27864;BME280;15980;51.092;13.916;2022-10-17T09:54:16;99546.09;;;18.31;78.84
27864;BME280;15980;51.092;13.916;2022-10-17T09:59:31;99547.59;;;18.25;78.42
27864;BME280;15980;51.092;13.916;2022-10-17T10:04:34;99534.34;;;18.41;78.67
27864;BME280;15980;51.092;13.916;2022-10-17T10:09:45;99536.81;;;18.46;77.70
27864;BME280;15980;51.092;13.916;2022-10-17T10:14:50;99540.06;;;18.51;76.42
27864;BME280;15980;51.092;13.916;2022-10-17T10:19:55;99544.31;;;18.65;76.40
27864;BME280;15980;51.092;13.916;2022-10-17T10:25:13;99540.97;;;18.82;76.05
27864;BME280;15980;51.092;13.916;2022-10-17T10:30:29;99538.72;;;18.91;76.33
27864;BME280;15980;51.092;13.916;2022-10-17T10:35:35;99542.81;;;19.01;74.95
27864;BME280;15980;51.092;13.916;2022-10-17T10:40:44;99545.41;;;19.13;74.20
27864;BME280;15980;51.092;13.916;2022-10-17T10:45:50;99540.25;;;19.15;74.40
27864;BME280;15980;51.092;13.916;2022-10-17T10:50:56;99526.72;;;19.13;73.49
27864;BME280;15980;51.092;13.916;2022-10-17T10:56:03;99517.25;;;19.18;74.36
27864;BME280;15980;51.092;13.916;2022-10-17T11:01:15;99524.88;;;19.25;73.14
27864;BME280;15980;51.092;13.916;2022-10-17T11:06:24;99540.94;;;19.38;72.69
27864;BME280;15980;51.092;13.916;2022-10-17T11:11:31;99548.81;;;19.59;73.29
27864;BME280;15980;51.092;13.916;2022-10-17T11:16:45;99546.97;;;19.74;72.93
27864;BME280;15980;51.092;13.916;2022-10-17T11:21:59;99556.63;;;19.84;72.54
27864;BME280;15980;51.092;13.916;2022-10-17T11:27:05;99542.47;;;19.99;72.32
27864;BME280;15980;51.092;13.916;2022-10-17T11:32:12;99532.16;;;20.03;72.28
27864;BME280;15980;51.092;13.916;2022-10-17T11:37:21;99518.31;;;20.11;72.44
27864;BME280;15980;51.092;13.916;2022-10-17T11:42:26;99520.75;;;20.19;72.21
27864;BME280;15980;51.092;13.916;2022-10-17T11:47:42;99526.41;;;20.26;70.93
27864;BME280;15980;51.092;13.916;2022-10-17T11:52:50;99508.53;;;20.34;71.10
27864;BME280;15980;51.092;13.916;2022-10-17T11:58:09;99493.84;;;20.37;71.40
27864;BME280;15980;51.092;13.916;2022-10-17T12:03:26;99479.63;;;20.50;70.45
27864;BME280;15980;51.092;13.916;2022-10-17T12:08:35;99480.03;;;20.48;70.67
27864;BME280;15980;51.092;13.916;2022-10-17T12:13:51;99478.97;;;20.74;70.77
27864;BME280;15980;51.092;13.916;2022-10-17T12:19:42;99480.59;;;20.79;69.00
27864;BME280;15980;51.092;13.916;2022-10-17T12:24:53;99465.94;;;20.92;69.08
27864;BME280;15980;51.092;13.916;2022-10-17T12:29:58;99457.22;;;21.05;68.24
27864;BME280;15980;51.092;13.916;2022-10-17T12:35:03;99463.28;;;21.21;67.86
27864;BME280;15980;51.092;13.916;2022-10-17T12:46:09;99458.28;;;21.76;66.85
27864;BME280;15980;51.092;13.916;2022-10-17T12:51:13;99456.69;;;21.97;62.97
27864;BME280;15980;51.092;13.916;2022-10-17T12:56:37;99451.16;;;22.14;62.21
27864;BME280;15980;51.092;13.916;2022-10-17T13:01:44;99446.78;;;22.20;61.67
27864;BME280;15980;51.092;13.916;2022-10-17T13:06:52;99442.34;;;22.44;62.56
27864;BME280;15980;51.092;13.916;2022-10-17T13:11:57;99438.34;;;22.45;61.67
27864;BME280;15980;51.092;13.916;2022-10-17T13:17:03;99442.75;;;22.43;61.84
27864;BME280;15980;51.092;13.916;2022-10-17T13:22:14;99443.16;;;22.31;63.22
27864;BME280;15980;51.092;13.916;2022-10-17T13:27:23;99437.56;;;22.38;62.80
27864;BME280;15980;51.092;13.916;2022-10-17T13:32:34;99449.94;;;22.30;62.95
27864;BME280;15980;51.092;13.916;2022-10-17T13:37:40;99445.56;;;22.18;62.89
27864;BME280;15980;51.092;13.916;2022-10-17T13:42:44;99432.34;;;21.90;62.78
27864;BME280;15980;51.092;13.916;2022-10-17T13:47:47;99434.34;;;21.72;63.49
27864;BME280;15980;51.092;13.916;2022-10-17T13:53:17;99436.75;;;21.70;63.39
27864;BME280;15980;51.092;13.916;2022-10-17T13:58:22;99431.09;;;21.48;64.29
27864;BME280;15980;51.092;13.916;2022-10-17T14:03:25;99438.66;;;21.44;65.18
27864;BME280;15980;51.092;13.916;2022-10-17T14:08:34;99442.19;;;21.23;65.92
27864;BME280;15980;51.092;13.916;2022-10-17T14:13:38;99451.69;;;21.15;66.61
27864;BME280;15980;51.092;13.916;2022-10-17T14:18:41;99448.88;;;21.05;67.36
27864;BME280;15980;51.092;13.916;2022-10-17T14:23:49;99444.41;;;20.86;67.43
27864;BME280;15980;51.092;13.916;2022-10-17T14:29:03;99449.16;;;20.82;68.46
27864;BME280;15980;51.092;13.916;2022-10-17T14:34:19;99449.88;;;20.72;68.35
27864;BME280;15980;51.092;13.916;2022-10-17T14:39:25;99456.56;;;20.56;69.42
27864;BME280;15980;51.092;13.916;2022-10-17T14:44:30;99445.78;;;20.48;69.33
27864;BME280;15980;51.092;13.916;2022-10-17T14:49:36;99448.88;;;20.39;69.38
27864;BME280;15980;51.092;13.916;2022-10-17T14:54:41;99459.91;;;20.28;69.92
27864;BME280;15980;51.092;13.916;2022-10-17T14:59:44;99454.31;;;20.21;70.52
27864;BME280;15980;51.092;13.916;2022-10-17T15:04:55;99452.94;;;20.01;71.33
27864;BME280;15980;51.092;13.916;2022-10-17T15:10:00;99466.00;;;19.93;71.53
27864;BME280;15980;51.092;13.916;2022-10-17T15:15:03;99467.44;;;19.76;72.05
27864;BME280;15980;51.092;13.916;2022-10-17T15:20:11;99465.63;;;19.54;73.44
27864;BME280;15980;51.092;13.916;2022-10-17T15:25:16;99467.00;;;19.37;73.74
27864;BME280;15980;51.092;13.916;2022-10-17T15:30:21;99472.34;;;19.20;74.81
27864;BME280;15980;51.092;13.916;2022-10-17T15:35:25;99472.22;;;19.09;74.49
27864;BME280;15980;51.092;13.916;2022-10-17T15:40:30;99473.59;;;18.92;75.21
27864;BME280;15980;51.092;13.916;2022-10-17T15:45:33;99475.72;;;18.72;76.12
27864;BME280;15980;51.092;13.916;2022-10-17T15:50:36;99481.75;;;18.55;76.84
27864;BME280;15980;51.092;13.916;2022-10-17T15:55:40;99482.72;;;18.40;77.22
27864;BME280;15980;51.092;13.916;2022-10-17T16:00:44;99485.56;;;18.20;78.09
27864;BME280;15980;51.092;13.916;2022-10-17T16:05:47;99488.13;;;18.06;77.61
27864;BME280;15980;51.092;13.916;2022-10-17T16:10:51;99495.78;;;17.90;78.95
27864;BME280;15980;51.092;13.916;2022-10-17T16:15:54;99502.66;;;17.77;79.41
27864;BME280;15980;51.092;13.916;2022-10-17T16:20:57;99497.34;;;17.68;79.72
27864;BME280;15980;51.092;13.916;2022-10-17T16:26:01;99492.31;;;17.54;80.67
27864;BME280;15980;51.092;13.916;2022-10-17T16:31:04;99485.03;;;17.46;80.95
27864;BME280;15980;51.092;13.916;2022-10-17T16:36:12;99503.78;;;17.34;81.96
27864;BME280;15980;51.092;13.916;2022-10-17T16:41:27;99492.56;;;17.26;82.19
27864;BME280;15980;51.092;13.916;2022-10-17T16:46:31;99490.38;;;17.16;82.81
27864;BME280;15980;51.092;13.916;2022-10-17T16:51:34;99492.78;;;17.18;82.79
27864;BME280;15980;51.092;13.916;2022-10-17T16:56:38;99490.88;;;17.22;82.46
27864;BME280;15980;51.092;13.916;2022-10-17T17:01:42;99498.03;;;17.23;82.78
27864;BME280;15980;51.092;13.916;2022-10-17T17:06:45;99497.22;;;17.22;83.03
27864;BME280;15980;51.092;13.916;2022-10-17T17:11:49;99513.50;;;17.24;82.82
27864;BME280;15980;51.092;13.916;2022-10-17T17:16:52;99522.91;;;17.19;82.47
27864;BME280;15980;51.092;13.916;2022-10-17T17:21:54;99517.66;;;17.14;83.12
27864;BME280;15980;51.092;13.916;2022-10-17T17:26:59;99525.63;;;17.16;83.27
27864;BME280;15980;51.092;13.916;2022-10-17T17:32:01;99528.38;;;17.16;83.30
27864;BME280;15980;51.092;13.916;2022-10-17T17:37:04;99538.75;;;17.19;82.83
27864;BME280;15980;51.092;13.916;2022-10-17T17:42:08;99526.84;;;17.18;82.77
27864;BME280;15980;51.092;13.916;2022-10-17T17:47:11;99533.34;;;17.26;82.35
27864;BME280;15980;51.092;13.916;2022-10-17T17:52:14;99528.47;;;17.19;82.65
27864;BME280;15980;51.092;13.916;2022-10-17T17:57:18;99527.94;;;17.14;82.75
27864;BME280;15980;51.092;13.916;2022-10-17T18:02:20;99537.00;;;17.11;82.91
27864;BME280;15980;51.092;13.916;2022-10-17T18:07:23;99538.91;;;17.07;83.37
27864;BME280;15980;51.092;13.916;2022-10-17T18:12:27;99530.88;;;17.02;83.55
27864;BME280;15980;51.092;13.916;2022-10-17T18:17:30;99529.53;;;16.95;83.78
27864;BME280;15980;51.092;13.916;2022-10-17T18:22:33;99525.44;;;16.89;84.43
27864;BME280;15980;51.092;13.916;2022-10-17T18:27:38;99515.78;;;16.83;84.55
27864;BME280;15980;51.092;13.916;2022-10-17T18:32:41;99523.31;;;16.83;84.78
27864;BME280;15980;51.092;13.916;2022-10-17T18:37:44;99521.53;;;16.75;84.92
27864;BME280;15980;51.092;13.916;2022-10-17T18:42:48;99523.44;;;16.71;85.37
27864;BME280;15980;51.092;13.916;2022-10-17T18:47:50;99537.66;;;16.69;85.11
27864;BME280;15980;51.092;13.916;2022-10-17T18:52:54;99524.75;;;16.61;85.32
27864;BME280;15980;51.092;13.916;2022-10-17T18:57:58;99528.53;;;16.53;86.08
27864;BME280;15980;51.092;13.916;2022-10-17T19:03:01;99539.41;;;16.46;86.18
27864;BME280;15980;51.092;13.916;2022-10-17T19:08:05;99541.56;;;16.37;86.60
27864;BME280;15980;51.092;13.916;2022-10-17T19:13:09;99530.69;;;16.28;87.44
27864;BME280;15980;51.092;13.916;2022-10-17T19:18:12;99522.38;;;16.28;87.67
27864;BME280;15980;51.092;13.916;2022-10-17T19:23:15;99531.03;;;16.26;88.17
27864;BME280;15980;51.092;13.916;2022-10-17T19:28:19;99527.38;;;16.22;88.10
27864;BME280;15980;51.092;13.916;2022-10-17T19:33:22;99521.31;;;16.17;88.37
27864;BME280;15980;51.092;13.916;2022-10-17T19:38:26;99521.66;;;16.15;88.34
27864;BME280;15980;51.092;13.916;2022-10-17T19:43:30;99531.84;;;16.11;88.81
27864;BME280;15980;51.092;13.916;2022-10-17T19:48:34;99530.25;;;16.10;89.07
27864;BME280;15980;51.092;13.916;2022-10-17T19:53:38;99548.38;;;16.08;89.32
27864;BME280;15980;51.092;13.916;2022-10-17T19:58:42;99558.66;;;16.07;89.14
27864;BME280;15980;51.092;13.916;2022-10-17T20:03:46;99565.69;;;16.05;88.86
27864;BME280;15980;51.092;13.916;2022-10-17T20:08:49;99571.81;;;15.98;90.00
27864;BME280;15980;51.092;13.916;2022-10-17T20:13:54;99579.31;;;15.97;89.48
27864;BME280;15980;51.092;13.916;2022-10-17T20:19:02;99577.16;;;15.91;89.49
27864;BME280;15980;51.092;13.916;2022-10-17T20:24:07;99575.03;;;15.84;90.19
27864;BME280;15980;51.092;13.916;2022-10-17T20:29:14;99573.31;;;15.80;90.29
27864;BME280;15980;51.092;13.916;2022-10-17T20:34:18;99575.63;;;15.78;90.98
27864;BME280;15980;51.092;13.916;2022-10-17T20:39:21;99580.47;;;15.81;91.32
27864;BME280;15980;51.092;13.916;2022-10-17T20:44:25;99583.84;;;15.74;91.38
27864;BME280;15980;51.092;13.916;2022-10-17T20:49:28;99584.09;;;15.69;91.70
27864;BME280;15980;51.092;13.916;2022-10-17T20:54:32;99596.56;;;15.63;92.38
27864;BME280;15980;51.092;13.916;2022-10-17T20:59:36;99599.34;;;15.63;92.94
27864;BME280;15980;51.092;13.916;2022-10-17T21:04:39;99595.50;;;15.55;92.21
27864;BME280;15980;51.092;13.916;2022-10-17T21:09:46;99592.78;;;15.43;92.83
27864;BME280;15980;51.092;13.916;2022-10-17T21:14:50;99592.78;;;15.43;93.88
27864;BME280;15980;51.092;13.916;2022-10-17T21:19:53;99595.00;;;15.37;94.13
27864;BME280;15980;51.092;13.916;2022-10-17T21:24:56;99582.22;;;15.33;93.98
27864;BME280;15980;51.092;13.916;2022-10-17T21:30:00;99568.75;;;15.31;94.19
27864;BME280;15980;51.092;13.916;2022-10-17T21:35:03;99584.44;;;15.27;94.48
27864;BME280;15980;51.092;13.916;2022-10-17T21:40:07;99590.66;;;15.24;94.93
27864;BME280;15980;51.092;13.916;2022-10-17T21:45:12;99584.34;;;15.24;95.00
27864;BME280;15980;51.092;13.916;2022-10-17T21:50:16;99579.50;;;15.21;95.18
27864;BME280;15980;51.092;13.916;2022-10-17T21:55:19;99584.09;;;15.17;94.91
27864;BME280;15980;51.092;13.916;2022-10-17T22:00:23;99595.41;;;15.12;95.47
27864;BME280;15980;51.092;13.916;2022-10-17T22:05:26;99584.00;;;15.13;95.48
27864;BME280;15980;51.092;13.916;2022-10-17T22:10:30;99588.16;;;15.19;95.68
27864;BME280;15980;51.092;13.916;2022-10-17T22:15:34;99582.03;;;15.26;95.02
27864;BME280;15980;51.092;13.916;2022-10-17T22:20:38;99592.53;;;15.20;94.25
27864;BME280;15980;51.092;13.916;2022-10-17T22:25:40;99591.59;;;15.16;94.87
27864;BME280;15980;51.092;13.916;2022-10-17T22:30:44;99596.66;;;15.14;94.80
27864;BME280;15980;51.092;13.916;2022-10-17T22:35:47;99601.88;;;15.03;94.32
27864;BME280;15980;51.092;13.916;2022-10-17T22:40:50;99613.84;;;14.95;94.76
27864;BME280;15980;51.092;13.916;2022-10-17T22:45:56;99615.47;;;14.84;94.63
27864;BME280;15980;51.092;13.916;2022-10-17T22:51:00;99611.44;;;14.69;94.86
27864;BME280;15980;51.092;13.916;2022-10-17T22:56:05;99614.53;;;14.56;94.92
27864;BME280;15980;51.092;13.916;2022-10-17T23:01:13;99611.28;;;14.41;95.54
27864;BME280;15980;51.092;13.916;2022-10-17T23:06:16;99618.06;;;14.32;96.01
27864;BME280;15980;51.092;13.916;2022-10-17T23:11:20;99610.31;;;14.25;96.31
27864;BME280;15980;51.092;13.916;2022-10-17T23:16:24;99605.94;;;14.24;97.44
27864;BME280;15980;51.092;13.916;2022-10-17T23:21:27;99602.72;;;14.10;97.21
27864;BME280;15980;51.092;13.916;2022-10-17T23:26:30;99606.72;;;14.00;97.17
27864;BME280;15980;51.092;13.916;2022-10-17T23:31:34;99596.59;;;13.92;97.74
27864;BME280;15980;51.092;13.916;2022-10-17T23:36:37;99600.53;;;13.82;97.56
27864;BME280;15980;51.092;13.916;2022-10-17T23:41:40;99599.03;;;13.73;97.52
27864;BME280;15980;51.092;13.916;2022-10-17T23:46:44;99601.06;;;13.64;97.90
27864;BME280;15980;51.092;13.916;2022-10-17T23:51:47;99589.31;;;13.55;98.02
27864;BME280;15980;51.092;13.916;2022-10-17T23:56:49;99589.53;;;13.49;98.41
